createdAt,value
2017-04-10T00:01:19.010Z,1016.88
2017-04-10T00:02:41.160Z,1016.83
2017-04-10T00:04:03.796Z,1016.85
2017-04-10T00:05:25.620Z,1016.84
2017-04-10T00:06:47.449Z,1016.81
2017-04-10T00:08:09.631Z,1016.76
2017-04-10T00:09:32.028Z,1016.78
2017-04-10T00:10:53.546Z,1016.73
2017-04-10T00:12:15.732Z,1016.75
2017-04-10T00:13:37.668Z,1016.71
2017-04-10T00:14:59.418Z,1016.7
2017-04-10T00:16:21.318Z,1016.68
2017-04-10T00:17:43.767Z,1016.66
2017-04-10T00:19:06.030Z,1016.62
2017-04-10T00:20:27.828Z,1016.54
2017-04-10T00:21:50.375Z,1016.56
2017-04-10T00:23:12.216Z,1016.53
2017-04-10T00:24:34.122Z,1016.48
2017-04-10T00:25:56.511Z,1016.51
2017-04-10T00:27:18.669Z,1016.45
2017-04-10T00:28:40.498Z,1016.48
2017-04-10T00:30:02.642Z,1016.51
2017-04-10T00:31:24.739Z,1016.48
2017-04-10T00:32:47.266Z,1016.46
2017-04-10T00:34:09.730Z,1016.5
2017-04-10T00:35:32.092Z,1016.42
2017-04-10T00:36:54.238Z,1016.41
2017-04-10T00:38:16.049Z,1016.34
2017-04-10T00:39:38.577Z,1016.33
2017-04-10T00:41:01.021Z,1016.34
2017-04-10T00:42:23.423Z,1016.31
2017-04-10T00:43:45.053Z,1016.27
2017-04-10T00:45:07.197Z,1016.25
2017-04-10T00:46:29.662Z,1016.24
2017-04-10T00:47:52.429Z,1016.2
2017-04-10T00:49:14.588Z,1016.19
2017-04-10T00:50:36.724Z,1016.14
2017-04-10T00:51:58.243Z,1016.11
2017-04-10T00:53:20.380Z,1016.1
2017-04-10T00:54:42.223Z,1016.1
2017-04-10T00:56:04.155Z,1016.05
2017-04-10T00:57:26.330Z,1015.99
2017-04-10T00:58:47.786Z,1015.98
2017-04-10T01:00:10.002Z,1015.96
2017-04-10T01:01:32.456Z,1015.9
2017-04-10T01:02:54.048Z,1015.9
2017-04-10T01:04:16.262Z,1015.9
2017-04-10T01:05:38.441Z,1015.87
2017-04-10T01:07:00.267Z,1015.87
2017-04-10T01:08:22.405Z,1015.8
2017-04-10T01:09:44.801Z,1015.8
2017-04-10T01:11:06.960Z,1015.77
2017-04-10T01:12:28.467Z,1015.75
2017-04-10T01:13:50.626Z,1015.72
2017-04-10T01:15:13.349Z,1015.72
2017-04-10T01:16:35.305Z,1015.71
2017-04-10T01:17:57.218Z,1015.63
2017-04-10T01:19:19.059Z,1015.61
2017-04-10T01:20:41.832Z,1015.58
2017-04-10T01:22:03.673Z,1015.59
2017-04-10T01:23:25.531Z,1015.55
2017-04-10T01:24:47.419Z,1015.55
2017-04-10T01:26:09.188Z,1015.52
2017-04-10T01:27:31.397Z,1015.48
2017-04-10T01:28:52.925Z,1015.47
2017-04-10T01:30:15.496Z,1015.47
2017-04-10T01:31:37.920Z,1015.46
2017-04-10T01:32:59.747Z,1015.48
2017-04-10T01:34:21.262Z,1015.48
2017-04-10T01:35:43.398Z,1015.48
2017-04-10T01:37:05.164Z,1015.45
2017-04-10T01:38:26.790Z,1015.45
2017-04-10T01:39:49.011Z,1015.43
2017-04-10T01:41:10.838Z,1015.41
2017-04-10T01:42:32.600Z,1015.41
2017-04-10T01:43:55.046Z,1015.41
2017-04-10T01:45:15.952Z,1015.4
2017-04-10T01:46:38.057Z,1015.36
2017-04-10T01:48:00.815Z,1015.34
2017-04-10T01:49:22.968Z,1015.33
2017-04-10T01:50:45.109Z,1015.3
2017-04-10T01:52:07.378Z,1015.3
2017-04-10T01:53:30.100Z,1015.29
2017-04-10T01:54:52.559Z,1015.27
2017-04-10T01:56:14.732Z,1015.23
2017-04-10T01:57:36.535Z,1015.21
2017-04-10T01:58:57.978Z,1015.09
2017-04-10T02:00:20.220Z,1015.06
2017-04-10T02:01:42.424Z,1014.98
2017-04-10T02:03:04.585Z,1014.92
2017-04-10T02:04:26.867Z,1014.87
2017-04-10T02:05:49.021Z,1014.88
2017-04-10T02:07:10.865Z,1014.81
2017-04-10T02:08:32.742Z,1014.77
2017-04-10T02:09:54.823Z,1014.75
2017-04-10T02:11:16.938Z,1014.77
2017-04-10T02:12:39.416Z,1014.78
2017-04-10T02:14:01.580Z,1014.79
2017-04-10T02:15:23.349Z,1014.83
2017-04-10T02:16:45.177Z,1014.79
2017-04-10T02:18:07.099Z,1014.75
2017-04-10T02:19:29.264Z,1014.74
2017-04-10T02:20:51.657Z,1014.72
2017-04-10T02:22:13.829Z,1014.67
2017-04-10T02:23:35.330Z,1014.64
2017-04-10T02:24:56.902Z,1014.62
2017-04-10T02:26:18.678Z,1014.61
2017-04-10T02:27:40.508Z,1014.64
2017-04-10T02:29:02.102Z,1014.61
2017-04-10T02:30:23.620Z,1014.59
2017-04-10T02:31:45.748Z,1014.59
2017-04-10T02:33:06.985Z,1014.57
2017-04-10T02:34:29.125Z,1014.56
2017-04-10T02:35:50.930Z,1014.5
2017-04-10T02:37:13.328Z,1014.52
2017-04-10T02:38:35.798Z,1014.51
2017-04-10T02:39:57.988Z,1014.5
2017-04-10T02:41:20.134Z,1014.48
2017-04-10T02:42:41.868Z,1014.48
2017-04-10T02:44:04.021Z,1014.44
2017-04-10T02:45:25.559Z,1014.45
2017-04-10T02:46:47.719Z,1014.45
2017-04-10T02:48:09.946Z,1014.44
2017-04-10T02:49:31.766Z,1014.38
2017-04-10T02:50:54.277Z,1014.39
2017-04-10T02:52:16.086Z,1014.33
2017-04-10T02:53:38.219Z,1014.29
2017-04-10T02:55:00.354Z,1014.31
2017-04-10T02:56:22.186Z,1014.34
2017-04-10T02:57:44.147Z,1014.39
2017-04-10T02:59:06.369Z,1014.35
2017-04-10T03:00:28.298Z,1014.38
2017-04-10T03:01:50.127Z,1014.38
2017-04-10T03:03:12.250Z,1014.35
2017-04-10T03:04:34.768Z,1014.34
2017-04-10T03:05:56.289Z,1014.36
2017-04-10T03:07:18.125Z,1014.41
2017-04-10T03:08:39.309Z,1014.34
2017-04-10T03:10:01.379Z,1014.35
2017-04-10T03:11:23.531Z,1014.43
2017-04-10T03:12:44.766Z,1014.35
2017-04-10T03:14:07.000Z,1014.35
2017-04-10T03:15:28.899Z,1014.42
2017-04-10T03:16:51.028Z,1014.33
2017-04-10T03:18:13.183Z,1014.33
2017-04-10T03:19:35.883Z,1014.28
2017-04-10T03:20:58.363Z,1014.21
2017-04-10T03:22:20.078Z,1014.32
2017-04-10T03:23:41.909Z,1014.29
2017-04-10T03:25:03.429Z,1014.36
2017-04-10T03:26:25.541Z,1014.33
2017-04-10T03:27:47.999Z,1014.28
2017-04-10T03:29:09.829Z,1014.35
2017-04-10T03:30:31.658Z,1014.28
2017-04-10T03:31:53.726Z,1014.26
2017-04-10T03:33:15.558Z,1014.29
2017-04-10T03:34:37.059Z,1014.29
2017-04-10T03:35:59.227Z,1014.3
2017-04-10T03:37:21.040Z,1014.3
2017-04-10T03:38:42.867Z,1014.3
2017-04-10T03:40:04.690Z,1014.3
2017-04-10T03:41:25.881Z,1014.3
2017-04-10T03:42:47.963Z,1014.3
2017-04-10T03:44:10.079Z,1014.27
2017-04-10T03:45:31.670Z,1014.31
2017-04-10T03:46:54.162Z,1014.35
2017-04-10T03:48:16.546Z,1014.28
2017-04-10T03:49:38.690Z,1014.28
2017-04-10T03:51:01.325Z,1014.29
2017-04-10T03:52:23.396Z,1014.36
2017-04-10T03:53:46.200Z,1014.24
2017-04-10T03:55:08.159Z,1014.26
2017-04-10T03:56:29.691Z,1014.29
2017-04-10T03:57:52.116Z,1014.4
2017-04-10T03:59:14.209Z,1014.29
2017-04-10T04:00:36.447Z,1014.26
2017-04-10T04:01:58.637Z,1014.32
2017-04-10T04:03:20.149Z,1014.42
2017-04-10T04:04:42.282Z,1014.27
2017-04-10T04:06:04.119Z,1014.36
2017-04-10T04:07:26.577Z,1014.39
2017-04-10T04:08:48.700Z,1014.36
2017-04-10T04:10:10.504Z,1014.33
2017-04-10T04:11:32.427Z,1014.44
2017-04-10T04:12:54.056Z,1014.35
2017-04-10T04:14:15.577Z,1014.45
2017-04-10T04:15:37.726Z,1014.46
2017-04-10T04:16:58.969Z,1014.47
2017-04-10T04:18:20.163Z,1014.58
2017-04-10T04:19:42.028Z,1014.58
2017-04-10T04:21:04.219Z,1014.58
2017-04-10T04:22:26.368Z,1014.6
2017-04-10T04:23:47.555Z,1014.66
2017-04-10T04:25:09.678Z,1014.7
2017-04-10T04:26:31.440Z,1014.66
2017-04-10T04:27:54.015Z,1014.69
2017-04-10T04:29:15.938Z,1014.73
2017-04-10T04:30:37.734Z,1014.72
2017-04-10T04:31:58.925Z,1014.73
2017-04-10T04:33:21.064Z,1014.81
2017-04-10T04:34:43.190Z,1014.83
2017-04-10T04:36:05.324Z,1014.87
2017-04-10T04:37:28.139Z,1014.96
2017-04-10T04:38:49.737Z,1014.9
2017-04-10T04:40:11.549Z,1014.91
2017-04-10T04:41:33.744Z,1014.97
2017-04-10T04:42:56.191Z,1014.97
2017-04-10T04:44:18.047Z,1014.93
2017-04-10T04:45:39.886Z,1014.96
2017-04-10T04:47:01.399Z,1015.02
2017-04-10T04:48:23.781Z,1015.01
2017-04-10T04:49:45.461Z,1015.03
2017-04-10T04:51:07.397Z,1015.01
2017-04-10T04:52:29.237Z,1015.03
2017-04-10T04:53:50.391Z,1015.08
2017-04-10T04:55:11.926Z,1015.13
2017-04-10T04:56:33.772Z,1015.16
2017-04-10T04:57:55.967Z,1015.21
2017-04-10T04:59:17.098Z,1015.24
2017-04-10T05:00:38.917Z,1015.27
2017-04-10T05:02:01.417Z,1015.26
2017-04-10T05:03:23.268Z,1015.27
2017-04-10T05:04:45.378Z,1015.24
2017-04-10T05:06:07.199Z,1015.24
2017-04-10T05:07:29.360Z,1015.36
2017-04-10T05:08:51.175Z,1015.38
2017-04-10T05:10:12.938Z,1015.43
2017-04-10T05:11:35.226Z,1015.42
2017-04-10T05:12:56.718Z,1015.42
2017-04-10T05:14:18.849Z,1015.51
2017-04-10T05:15:40.914Z,1015.5
2017-04-10T05:17:03.076Z,1015.55
2017-04-10T05:18:25.218Z,1015.58
2017-04-10T05:19:47.041Z,1015.55
2017-04-10T05:21:09.819Z,1015.62
2017-04-10T05:22:32.075Z,1015.68
2017-04-10T05:23:53.978Z,1015.68
2017-04-10T05:25:15.819Z,1015.74
2017-04-10T05:26:37.927Z,1015.71
2017-04-10T05:28:00.372Z,1015.78
2017-04-10T05:29:22.183Z,1015.76
2017-04-10T05:30:44.009Z,1015.82
2017-04-10T05:32:06.418Z,1015.88
2017-04-10T05:33:28.247Z,1015.86
2017-04-10T05:34:50.087Z,1015.8
2017-04-10T05:36:11.909Z,1015.81
2017-04-10T05:37:34.673Z,1015.87
2017-04-10T05:38:57.280Z,1015.89
2017-04-10T05:40:19.227Z,1015.87
2017-04-10T05:41:41.355Z,1015.9
2017-04-10T05:43:03.461Z,1015.94
2017-04-10T05:44:25.290Z,1015.95
2017-04-10T05:45:47.440Z,1015.96
2017-04-10T05:47:09.618Z,1015.95
2017-04-10T05:48:31.671Z,1015.96
2017-04-10T05:49:53.571Z,1016.03
2017-04-10T05:51:15.405Z,1016.09
2017-04-10T05:52:37.239Z,1016.14
2017-04-10T05:53:59.723Z,1016.14
2017-04-10T05:55:22.190Z,1016.17
2017-04-10T05:56:44.635Z,1016.26
2017-04-10T05:58:06.778Z,1016.26
2017-04-10T05:59:29.778Z,1016.32
2017-04-10T06:00:51.640Z,1016.34
2017-04-10T06:02:13.817Z,1016.35
2017-04-10T06:03:35.767Z,1016.37
2017-04-10T06:04:57.570Z,1016.39
2017-04-10T06:06:20.083Z,1016.36
2017-04-10T06:07:41.278Z,1016.36
2017-04-10T06:09:03.420Z,1016.37
2017-04-10T06:10:25.920Z,1016.44
2017-04-10T06:11:48.157Z,1016.39
2017-04-10T06:13:10.403Z,1016.47
2017-04-10T06:14:31.927Z,1016.54
2017-04-10T06:15:54.361Z,1016.52
2017-04-10T06:17:16.483Z,1016.51
2017-04-10T06:18:37.731Z,1016.58
2017-04-10T06:19:59.542Z,1016.64
2017-04-10T06:21:22.006Z,1016.64
2017-04-10T06:22:43.930Z,1016.6
2017-04-10T06:24:06.079Z,1016.63
2017-04-10T06:25:28.568Z,1016.68
2017-04-10T06:26:50.659Z,1016.7
2017-04-10T06:28:13.119Z,1016.68
2017-04-10T06:29:34.935Z,1016.74
2017-04-10T06:30:57.079Z,1016.79
2017-04-10T06:32:19.482Z,1016.73
2017-04-10T06:33:41.610Z,1016.77
2017-04-10T06:35:04.079Z,1016.83
2017-04-10T06:36:25.912Z,1016.85
2017-04-10T06:37:48.636Z,1016.88
2017-04-10T06:39:10.780Z,1016.89
2017-04-10T06:41:04.919Z,1016.89
2017-04-10T06:42:27.374Z,1016.92
2017-04-10T06:43:49.773Z,1016.94
2017-04-10T06:45:11.733Z,1016.93
2017-04-10T06:46:34.185Z,1017.02
2017-04-10T06:47:55.938Z,1017.02
2017-04-10T06:49:18.089Z,1017.02
2017-04-10T06:50:40.550Z,1017
2017-04-10T06:52:02.694Z,1017.02
2017-04-10T06:53:25.192Z,1017
2017-04-10T06:54:46.394Z,1017.16
2017-04-10T06:56:08.338Z,1017.15
2017-04-10T06:57:30.499Z,1017.17
2017-04-10T06:58:51.979Z,1017.25
2017-04-10T07:00:13.800Z,1017.29
2017-04-10T07:01:36.150Z,1017.28
2017-04-10T07:02:58.042Z,1017.3
2017-04-10T07:04:20.459Z,1017.31
2017-04-10T07:05:42.409Z,1017.33
2017-04-10T07:07:04.245Z,1017.38
2017-04-10T07:08:26.181Z,1017.32
2017-04-10T07:09:48.942Z,1017.46
2017-04-10T07:11:11.194Z,1017.54
2017-04-10T07:12:33.169Z,1017.63
2017-04-10T07:13:55.156Z,1017.64
2017-04-10T07:15:17.534Z,1017.67
2017-04-10T07:16:39.068Z,1017.68
2017-04-10T07:18:01.231Z,1017.63
2017-04-10T07:19:23.387Z,1017.64
2017-04-10T07:20:45.461Z,1017.72
2017-04-10T07:22:07.285Z,1017.77
2017-04-10T07:23:29.569Z,1017.69
2017-04-10T07:24:51.082Z,1017.74
2017-04-10T07:26:13.260Z,1017.69
2017-04-10T07:27:34.777Z,1017.82
2017-04-10T07:28:56.609Z,1017.8
2017-04-10T07:30:17.829Z,1017.74
2017-04-10T07:31:39.268Z,1017.94
2017-04-10T07:33:00.779Z,1017.93
2017-04-10T07:34:23.000Z,1018.01
2017-04-10T07:35:45.151Z,1017.97
2017-04-10T07:37:07.558Z,1017.95
2017-04-10T07:38:29.401Z,1017.95
2017-04-10T07:39:51.667Z,1017.95
2017-04-10T07:41:13.214Z,1018.03
2017-04-10T07:42:35.323Z,1018.12
2017-04-10T07:43:56.518Z,1018.06
2017-04-10T07:45:18.469Z,1018.22
2017-04-10T07:46:40.982Z,1018.27
2017-04-10T07:48:03.398Z,1018.29
2017-04-10T07:49:25.899Z,1018.32
2017-04-10T07:50:47.732Z,1018.28
2017-04-10T07:52:10.200Z,1018.38
2017-04-10T07:53:32.999Z,1018.35
2017-04-10T07:54:54.818Z,1018.39
2017-04-10T07:56:17.394Z,1018.33
2017-04-10T07:57:39.242Z,1018.44
2017-04-10T07:59:01.428Z,1018.44
2017-04-10T08:00:23.880Z,1018.47
2017-04-10T08:01:46.140Z,1018.34
2017-04-10T08:03:07.979Z,1018.4
2017-04-10T08:04:30.705Z,1018.41
2017-04-10T08:05:52.843Z,1018.44
2017-04-10T08:07:15.069Z,1018.47
2017-04-10T08:08:37.245Z,1018.4
2017-04-10T08:09:59.650Z,1018.47
2017-04-10T08:11:21.579Z,1018.47
2017-04-10T08:12:44.063Z,1018.54
2017-04-10T08:14:06.527Z,1018.54
2017-04-10T08:15:29.350Z,1018.58
2017-04-10T08:16:51.584Z,1018.62
2017-04-10T08:18:12.800Z,1018.6
2017-04-10T08:19:34.639Z,1018.64
2017-04-10T08:20:56.774Z,1018.61
2017-04-10T08:22:18.639Z,1018.64
2017-04-10T08:23:40.473Z,1018.57
2017-04-10T08:25:02.372Z,1018.59
2017-04-10T08:26:24.458Z,1018.71
2017-04-10T08:27:46.590Z,1018.7
2017-04-10T08:29:08.734Z,1018.76
2017-04-10T08:30:31.063Z,1018.75
2017-04-10T08:31:54.209Z,1018.74
2017-04-10T08:33:17.385Z,1018.89
2017-04-10T08:34:39.540Z,1018.9
2017-04-10T08:36:01.357Z,1018.92
2017-04-10T08:37:23.437Z,1018.93
2017-04-10T08:38:45.918Z,1019.04
2017-04-10T08:40:08.400Z,1019.05
2017-04-10T08:41:30.932Z,1019.13
2017-04-10T08:42:52.737Z,1019.16
2017-04-10T08:44:14.898Z,1019.22
2017-04-10T08:45:36.498Z,1019.36
2017-04-10T08:46:58.652Z,1019.22
2017-04-10T08:48:21.422Z,1019.28
2017-04-10T08:49:43.559Z,1019.25
2017-04-10T08:51:06.101Z,1019.25
2017-04-10T08:52:27.666Z,1019.24
2017-04-10T08:53:50.404Z,1019.25
2017-04-10T08:55:11.590Z,1019.29
2017-04-10T08:56:34.133Z,1019.33
2017-04-10T08:57:56.112Z,1019.45
2017-04-10T08:59:18.659Z,1019.44
2017-04-10T09:00:40.836Z,1019.67
2017-04-10T09:02:02.688Z,1019.6
2017-04-10T09:03:24.507Z,1019.65
2017-04-10T09:04:47.215Z,1019.73
2017-04-10T09:06:09.069Z,1019.79
2017-04-10T09:07:31.272Z,1019.65
2017-04-10T09:08:53.759Z,1019.63
2017-04-10T09:10:16.195Z,1019.71
2017-04-10T09:11:38.129Z,1019.7
2017-04-10T09:13:00.399Z,1019.75
2017-04-10T09:14:22.983Z,1019.84
2017-04-10T09:15:45.072Z,1019.85
2017-04-10T09:17:07.698Z,1019.86
2017-04-10T09:18:29.861Z,1019.88
2017-04-10T09:19:52.328Z,1019.83
2017-04-10T09:21:14.552Z,1019.89
2017-04-10T09:22:37.434Z,1019.97
2017-04-10T09:23:59.580Z,1019.98
2017-04-10T09:25:22.210Z,1020.03
2017-04-10T09:26:45.359Z,1019.97
2017-04-10T09:28:07.577Z,1019.99
2017-04-10T09:29:29.108Z,1020.04
2017-04-10T09:30:51.092Z,1020.08
2017-04-10T09:32:13.818Z,1020.08
2017-04-10T09:33:36.169Z,1020.16
2017-04-10T09:34:58.085Z,1020.13
2017-04-10T09:36:20.037Z,1020.09
2017-04-10T09:37:42.747Z,1020.1
2017-04-10T09:39:04.919Z,1020.15
2017-04-10T09:40:26.756Z,1020.16
2017-04-10T09:41:48.609Z,1020.22
2017-04-10T09:43:11.322Z,1020.36
2017-04-10T09:44:33.315Z,1020.24
2017-04-10T09:45:55.768Z,1020.35
2017-04-10T09:47:17.938Z,1020.32
2017-04-10T09:48:40.466Z,1020.28
2017-04-10T09:50:02.748Z,1020.28
2017-04-10T09:51:24.997Z,1020.32
2017-04-10T09:52:47.207Z,1020.4
2017-04-10T09:54:08.708Z,1020.31
2017-04-10T09:55:30.891Z,1020.36
2017-04-10T09:56:53.449Z,1020.39
2017-04-10T09:58:16.169Z,1020.38
2017-04-10T09:59:38.566Z,1020.5
2017-04-10T10:01:00.089Z,1020.47
2017-04-10T10:02:22.854Z,1020.4
2017-04-10T10:03:45.246Z,1020.41
2017-04-10T10:05:07.677Z,1020.28
2017-04-10T10:06:29.856Z,1020.33
2017-04-10T10:07:51.717Z,1020.4
2017-04-10T10:09:13.873Z,1020.43
2017-04-10T10:10:36.615Z,1020.35
2017-04-10T10:11:58.156Z,1020.41
2017-04-10T10:13:20.317Z,1020.4
2017-04-10T10:14:42.572Z,1020.46
2017-04-10T10:16:05.126Z,1020.42
2017-04-10T10:17:27.594Z,1020.45
2017-04-10T10:18:50.078Z,1020.43
2017-04-10T10:20:12.339Z,1020.44
2017-04-10T10:21:34.799Z,1020.38
2017-04-10T10:22:56.946Z,1020.46
2017-04-10T10:24:19.097Z,1020.38
2017-04-10T10:25:41.682Z,1020.47
2017-04-10T10:27:04.157Z,1020.34
2017-04-10T10:28:26.657Z,1020.34
2017-04-10T10:29:49.038Z,1020.33
2017-04-10T10:31:11.295Z,1020.44
2017-04-10T10:33:04.806Z,1020.39
2017-04-10T10:34:27.386Z,1020.42
2017-04-10T10:35:49.847Z,1020.42
2017-04-10T10:37:12.333Z,1020.46
2017-04-10T10:38:34.222Z,1020.44
2017-04-10T10:39:56.625Z,1020.48
2017-04-10T10:41:18.476Z,1020.54
2017-04-10T10:42:40.656Z,1020.56
2017-04-10T10:44:02.871Z,1020.53
2017-04-10T10:45:25.317Z,1020.48
2017-04-10T10:46:47.237Z,1020.59
2017-04-10T10:48:09.538Z,1020.56
2017-04-10T10:49:31.677Z,1020.59
2017-04-10T10:50:54.485Z,1020.6
2017-04-10T10:52:16.964Z,1020.57
2017-04-10T10:53:39.261Z,1020.65
2017-04-10T10:55:01.406Z,1020.6
2017-04-10T10:56:23.493Z,1020.6
2017-04-10T10:57:45.330Z,1020.67
2017-04-10T10:59:07.185Z,1020.66
2017-04-10T11:00:29.040Z,1020.62
2017-04-10T11:01:51.299Z,1020.63
2017-04-10T11:03:13.774Z,1020.62
2017-04-10T11:04:35.612Z,1020.56
2017-04-10T11:05:57.479Z,1020.54
2017-04-10T11:07:20.039Z,1020.5
2017-04-10T11:08:42.169Z,1020.5
2017-04-10T11:10:04.464Z,1020.54
2017-04-10T11:11:26.295Z,1020.57
2017-04-10T11:12:48.728Z,1020.7
2017-04-10T11:14:10.890Z,1020.76
2017-04-10T11:15:33.037Z,1020.88
2017-04-10T11:16:54.893Z,1020.87
2017-04-10T11:18:17.334Z,1020.87
2017-04-10T11:19:39.804Z,1020.98
2017-04-10T11:21:01.947Z,1020.97
2017-04-10T11:22:23.151Z,1021.02
2017-04-10T11:23:45.314Z,1021.01
2017-04-10T11:25:07.484Z,1021.11
2017-04-10T11:26:29.075Z,1021.12
2017-04-10T11:27:51.345Z,1021.1
2017-04-10T11:29:13.416Z,1021.03
2017-04-10T11:30:35.578Z,1020.98
2017-04-10T11:31:57.757Z,1020.98
2017-04-10T11:33:19.284Z,1020.93
2017-04-10T11:34:41.278Z,1021.07
2017-04-10T11:36:03.125Z,1021.01
2017-04-10T11:37:24.899Z,1021.12
2017-04-10T11:38:47.412Z,1021.01
2017-04-10T11:40:10.226Z,1021.13
2017-04-10T11:41:32.716Z,1021.02
2017-04-10T11:42:54.881Z,1021.11
2017-04-10T11:44:17.139Z,1021.11
2017-04-10T11:45:39.264Z,1021.15
2017-04-10T11:47:01.764Z,1021.13
2017-04-10T11:48:23.741Z,1021.04
2017-04-10T11:49:45.573Z,1020.96
2017-04-10T11:51:08.046Z,1021.12
2017-04-10T11:52:30.589Z,1021.16
2017-04-10T11:53:53.073Z,1021.12
2017-04-10T11:55:15.527Z,1021.12
2017-04-10T11:56:37.299Z,1021.03
2017-04-10T11:57:59.802Z,1021.02
2017-04-10T11:59:22.256Z,1021.09
2017-04-10T12:00:44.814Z,1021.08
2017-04-10T12:02:07.288Z,1021.06
2017-04-10T12:03:29.125Z,1021.29
2017-04-10T12:04:50.946Z,1021.26
2017-04-10T12:06:13.153Z,1021.1
2017-04-10T12:07:35.306Z,1021.17
2017-04-10T12:08:57.775Z,1021.3
2017-04-10T12:10:20.244Z,1021.27
2017-04-10T12:11:42.607Z,1021.17
2017-04-10T12:13:05.078Z,1021.19
2017-04-10T12:14:26.926Z,1021.08
2017-04-10T12:15:49.466Z,1021.17
2017-04-10T12:17:11.657Z,1021.15
2017-04-10T12:18:33.773Z,1021.22
2017-04-10T12:19:55.812Z,1021.3
2017-04-10T12:21:18.034Z,1021.18
2017-04-10T12:22:39.650Z,1021.19
2017-04-10T12:24:02.477Z,1021.28
2017-04-10T12:25:24.644Z,1021.18
2017-04-10T12:26:46.625Z,1021.14
2017-04-10T12:28:09.147Z,1021.26
2017-04-10T12:29:31.540Z,1021.2
2017-04-10T12:30:53.364Z,1021.39
2017-04-10T12:32:15.222Z,1021.37
2017-04-10T12:33:37.667Z,1021.47
2017-04-10T12:35:00.429Z,1021.42
2017-04-10T12:36:22.902Z,1021.45
2017-04-10T12:37:44.731Z,1021.37
2017-04-10T12:39:06.999Z,1021.43
2017-04-10T12:40:29.709Z,1021.4
2017-04-10T12:41:51.869Z,1021.4
2017-04-10T12:43:14.004Z,1021.56
2017-04-10T12:44:36.301Z,1021.44
2017-04-10T12:45:58.529Z,1021.44
2017-04-10T12:47:19.758Z,1021.41
2017-04-10T12:48:41.274Z,1021.52
2017-04-10T12:50:03.129Z,1021.53
2017-04-10T12:51:24.966Z,1021.48
2017-04-10T12:52:47.455Z,1021.47
2017-04-10T12:54:10.037Z,1021.43
2017-04-10T12:55:31.658Z,1021.34
2017-04-10T12:56:54.076Z,1021.4
2017-04-10T12:58:16.587Z,1021.41
2017-04-10T12:59:38.426Z,1021.39
2017-04-10T13:01:00.892Z,1021.51
2017-04-10T13:02:22.758Z,1021.45
2017-04-10T13:03:44.577Z,1021.44
2017-04-10T13:05:06.495Z,1021.46
2017-04-10T13:06:29.089Z,1021.5
2017-04-10T13:07:51.807Z,1021.48
2017-04-10T13:09:13.629Z,1021.47
2017-04-10T13:10:35.825Z,1021.48
2017-04-10T13:11:58.051Z,1021.56
2017-04-10T13:13:20.465Z,1021.53
2017-04-10T13:14:42.630Z,1021.52
2017-04-10T13:16:03.932Z,1021.54
2017-04-10T13:17:25.784Z,1021.51
2017-04-10T13:18:48.319Z,1021.6
2017-04-10T13:20:10.469Z,1021.58
2017-04-10T13:21:32.615Z,1021.63
2017-04-10T13:22:54.540Z,1021.62
2017-04-10T13:24:17.339Z,1021.65
2017-04-10T13:25:39.167Z,1021.65
2017-04-10T13:27:01.041Z,1021.59
2017-04-10T13:28:22.629Z,1021.69
2017-04-10T13:29:45.438Z,1021.7
2017-04-10T13:31:07.586Z,1021.69
2017-04-10T13:32:30.203Z,1021.65
2017-04-10T13:33:52.337Z,1021.62
2017-04-10T13:35:14.787Z,1021.66
2017-04-10T13:36:36.618Z,1021.56
2017-04-10T13:37:58.827Z,1021.62
2017-04-10T13:39:21.180Z,1021.65
2017-04-10T13:40:42.970Z,1021.56
2017-04-10T13:42:05.353Z,1021.57
2017-04-10T13:43:27.499Z,1021.62
2017-04-10T13:44:49.735Z,1021.61
2017-04-10T13:46:11.828Z,1021.67
2017-04-10T13:47:34.319Z,1021.7
2017-04-10T13:48:56.967Z,1021.7
2017-04-10T13:50:18.809Z,1021.63
2017-04-10T13:51:41.530Z,1021.66
2017-04-10T13:53:03.449Z,1021.6
2017-04-10T13:54:24.950Z,1021.61
2017-04-10T13:55:47.179Z,1021.63
2017-04-10T13:57:09.681Z,1021.67
2017-04-10T13:58:31.808Z,1021.66
2017-04-10T13:59:53.639Z,1021.61
2017-04-10T14:01:15.793Z,1021.54
2017-04-10T14:02:38.228Z,1021.61
2017-04-10T14:04:00.409Z,1021.66
2017-04-10T14:05:22.688Z,1021.58
2017-04-10T14:06:44.516Z,1021.47
2017-04-10T14:08:06.591Z,1021.49
2017-04-10T14:09:28.593Z,1021.48
2017-04-10T14:10:50.829Z,1021.51
2017-04-10T14:12:13.320Z,1021.52
2017-04-10T14:13:35.184Z,1021.56
2017-04-10T14:14:57.025Z,1021.57
2017-04-10T14:16:18.871Z,1021.58
2017-04-10T14:17:40.379Z,1021.61
2017-04-10T14:19:03.219Z,1021.55
2017-04-10T14:20:25.422Z,1021.61
2017-04-10T14:21:47.241Z,1021.59
2017-04-10T14:23:09.521Z,1021.65
2017-04-10T14:24:31.918Z,1021.65
2017-04-10T14:25:53.910Z,1021.61
2017-04-10T14:27:15.805Z,1021.59
2017-04-10T14:28:37.980Z,1021.55
2017-04-10T14:30:00.867Z,1021.5
2017-04-10T14:31:22.440Z,1021.46
2017-04-10T14:32:44.973Z,1021.5
2017-04-10T14:34:06.889Z,1021.48
2017-04-10T14:35:29.019Z,1021.63
2017-04-10T14:36:51.289Z,1021.66
2017-04-10T14:38:12.889Z,1021.66
2017-04-10T14:39:35.120Z,1021.64
2017-04-10T14:40:57.574Z,1021.7
2017-04-10T14:42:19.754Z,1021.62
2017-04-10T14:43:41.913Z,1021.61
2017-04-10T14:45:04.309Z,1021.66
2017-04-10T14:46:26.839Z,1021.64
2017-04-10T14:47:49.224Z,1021.69
2017-04-10T14:49:11.695Z,1021.63
2017-04-10T14:50:34.239Z,1021.72
2017-04-10T14:51:56.678Z,1021.65
2017-04-10T14:53:18.543Z,1021.66
2017-04-10T14:54:41.090Z,1021.68
2017-04-10T14:56:02.354Z,1021.68
2017-04-10T14:57:25.259Z,1021.76
2017-04-10T14:58:47.139Z,1021.78
2017-04-10T15:00:09.381Z,1021.68
2017-04-10T15:01:31.581Z,1021.71
2017-04-10T15:02:53.725Z,1021.74
2017-04-10T15:04:15.896Z,1021.77
2017-04-10T15:05:38.197Z,1021.93
2017-04-10T15:07:00.683Z,1021.69
2017-04-10T15:08:23.211Z,1021.75
2017-04-10T15:09:45.562Z,1021.72
2017-04-10T15:11:07.888Z,1021.72
2017-04-10T15:12:30.033Z,1021.75
2017-04-10T15:13:52.431Z,1021.72
2017-04-10T15:15:14.298Z,1021.75
2017-04-10T15:16:36.452Z,1021.79
2017-04-10T15:17:58.648Z,1021.78
2017-04-10T15:19:21.091Z,1021.64
2017-04-10T15:20:42.940Z,1021.8
2017-04-10T15:22:05.130Z,1021.82
2017-04-10T15:23:27.309Z,1021.85
2017-04-10T15:24:49.506Z,1021.86
2017-04-10T15:26:12.135Z,1021.82
2017-04-10T15:27:33.971Z,1021.82
2017-04-10T15:28:55.511Z,1021.84
2017-04-10T15:30:18.081Z,1021.87
2017-04-10T15:31:40.552Z,1021.78
2017-04-10T15:33:02.404Z,1021.89
2017-04-10T15:34:24.291Z,1021.85
2017-04-10T15:35:46.722Z,1021.91
2017-04-10T15:37:08.567Z,1021.91
2017-04-10T15:38:30.811Z,1021.88
2017-04-10T15:39:53.039Z,1021.85
2017-04-10T15:41:15.325Z,1021.82
2017-04-10T15:42:37.822Z,1021.78
2017-04-10T15:44:00.072Z,1021.77
2017-04-10T15:45:22.671Z,1021.86
2017-04-10T15:46:45.453Z,1021.92
2017-04-10T15:48:07.766Z,1021.95
2017-04-10T15:49:31.301Z,1021.92
2017-04-10T15:50:53.511Z,1021.87
2017-04-10T15:52:16.424Z,1021.87
2017-04-10T15:53:39.291Z,1021.9
2017-04-10T15:55:02.619Z,1021.9
2017-04-10T15:56:25.391Z,1021.91
2017-04-10T15:57:47.812Z,1021.85
2017-04-10T15:59:10.002Z,1021.85
2017-04-10T16:00:32.214Z,1021.88
2017-04-10T16:01:54.074Z,1021.94
2017-04-10T16:03:16.178Z,1021.93
2017-04-10T16:04:38.886Z,1021.91
2017-04-10T16:06:01.112Z,1021.94
2017-04-10T16:07:23.298Z,1021.96
2017-04-10T16:08:45.907Z,1021.92
2017-04-10T16:10:08.334Z,1021.91
2017-04-10T16:11:30.858Z,1021.92
2017-04-10T16:12:54.022Z,1021.92
2017-04-10T16:14:16.453Z,1021.94
2017-04-10T16:15:38.719Z,1021.91
2017-04-10T16:17:01.207Z,1021.84
2017-04-10T16:18:23.853Z,1021.86
2017-04-10T16:19:46.103Z,1021.9
2017-04-10T16:21:07.990Z,1021.92
2017-04-10T16:22:30.495Z,1021.9
2017-04-10T16:23:52.659Z,1021.95
2017-04-10T16:25:15.418Z,1021.92
2017-04-10T16:26:37.869Z,1021.96
2017-04-10T16:27:59.720Z,1021.93
2017-04-10T16:29:21.869Z,1021.95
2017-04-10T16:30:44.248Z,1021.9
2017-04-10T16:32:06.393Z,1021.92
2017-04-10T16:33:28.612Z,1021.92
2017-04-10T16:34:51.110Z,1021.92
2017-04-10T16:36:14.000Z,1021.92
2017-04-10T16:37:36.180Z,1021.88
2017-04-10T16:38:58.058Z,1021.85